Terminal Aerodrome Forecast
Issued by NWS

Home | Current Version | Previous Version | Text Only | Print | Product List | Glossary On
Versions: 1 2 3 4 5 6 7 8 9 10 11 12 13 14 15 16 17 18 19 20 21 22 23 24 25 26 27 28 29
000
FTUS41 KOKX 291140
TAFHPN
TAF
KHPN 291140Z 2912/3012 03006KT 2SM -RA SCT005 OVC015
      TEMPO 2915/2916 4SM -RA SCT015 BKN025
     FM291600 04006KT 6SM HZ SCT025 BKN100
     FM291800 04006KT P6SM FEW045 SCT120
     FM292200 VRB03KT P6SM SCT045
     FM300000 VRB03KT P6SM SCT250
     FM300500 VRB03KT 6SM BR SCT250
     FM300700 VRB03KT 5SM BR SCT250
      AMD NOT SKED=

USA.gov is the U.S. government's official web portal to all federal, state and local government web resources and services.